createdAt,value
2019-04-21T00:00:35.703Z,35.63
2019-04-21T00:03:11.501Z,35.07
2019-04-21T00:05:58.168Z,34.53
2019-04-21T00:08:33.328Z,38.23
2019-04-21T00:11:05.944Z,32.83
2019-04-21T00:13:25.263Z,33.33
2019-04-21T00:15:48.821Z,31.87
2019-04-21T00:18:40.901Z,33.97
2019-04-21T00:21:17.573Z,35.23
2019-04-21T00:23:55.352Z,33.33
2019-04-21T00:26:25.377Z,35.70
2019-04-21T00:29:05.141Z,34.27
2019-04-21T00:31:24.694Z,39.37
2019-04-21T00:33:44.474Z,35.97
2019-04-21T00:36:18.554Z,34.63
2019-04-21T00:39:18.539Z,33.57
2019-04-21T00:41:38.093Z,31.37
2019-04-21T00:44:02.053Z,39.57
2019-04-21T00:46:31.193Z,33.63
2019-04-21T00:49:09.512Z,37.13
2019-04-21T00:51:58.385Z,35.70
2019-04-21T00:54:23.146Z,34.87
2019-04-21T00:56:49.672Z,31.23
2019-04-21T00:59:19.763Z,36.77
2019-04-21T01:01:52.339Z,35.43
2019-04-21T01:04:15.302Z,36.17
2019-04-21T01:06:55.659Z,37.63
2019-04-21T01:09:19.706Z,37.00
2019-04-21T01:11:51.962Z,34.63
2019-04-21T01:14:29.880Z,37.40
2019-04-21T01:17:02.302Z,44.60
2019-04-21T01:19:23.857Z,34.27
2019-04-21T01:21:36.105Z,36.07
2019-04-21T01:24:13.367Z,32.50
2019-04-21T01:26:48.353Z,38.67
2019-04-21T01:29:35.700Z,35.23
2019-04-21T01:32:05.114Z,31.33
2019-04-21T01:34:30.394Z,31.93
2019-04-21T01:37:02.257Z,37.90
2019-04-21T01:39:34.510Z,37.53
2019-04-21T01:42:03.245Z,29.17
2019-04-21T01:44:59.461Z,39.23
2019-04-21T01:46:59.796Z,36.07
2019-04-21T01:49:29.571Z,35.63
2019-04-21T01:52:17.905Z,36.87
2019-04-21T01:55:00.322Z,36.83
2019-04-21T01:57:54.033Z,36.07
2019-04-21T02:00:32.660Z,35.20
2019-04-21T02:03:12.934Z,34.67
2019-04-21T02:05:44.395Z,31.53
2019-04-21T02:08:05.374Z,35.13
2019-04-21T02:10:53.030Z,31.40
2019-04-21T02:13:08.609Z,31.90
2019-04-21T02:15:46.674Z,33.30
2019-04-21T02:18:12.124Z,36.70
2019-04-21T02:20:35.934Z,31.57
2019-04-21T02:23:28.158Z,32.80
2019-04-21T02:25:44.344Z,33.23
2019-04-21T02:28:22.176Z,39.27
2019-04-21T02:31:09.613Z,30.10
2019-04-21T02:36:15.112Z,29.83
2019-04-21T02:38:40.178Z,33.67
2019-04-21T02:40:57.597Z,37.70
2019-04-21T02:43:54.295Z,37.40
2019-04-21T02:46:19.618Z,35.47
2019-04-21T02:48:43.545Z,32.97
2019-04-21T02:51:13.188Z,37.57
2019-04-21T02:56:09.792Z,36.67
2019-04-21T02:58:57.783Z,29.67
2019-04-21T03:04:38.522Z,29.63
2019-04-21T03:07:14.847Z,33.10
2019-04-21T03:09:41.012Z,31.80
2019-04-21T03:17:18.307Z,35.73
2019-04-21T03:27:28.818Z,33.20
2019-04-21T03:29:52.597Z,31.33
2019-04-21T03:38:37.454Z,36.17
2019-04-21T03:40:05.265Z,31.63
2019-04-21T03:42:44.986Z,35.17
2019-04-21T03:47:38.397Z,34.23
2019-04-21T03:50:18.832Z,33.70
2019-04-21T03:52:53.421Z,36.53
2019-04-21T04:08:59.216Z,34.23
2019-04-21T04:13:57.916Z,35.13
2019-04-21T04:16:18.872Z,35.77
2019-04-21T04:18:52.880Z,33.43
2019-04-21T04:21:30.264Z,32.70
2019-04-21T04:26:33.625Z,31.03
2019-04-21T04:29:12.400Z,30.30
2019-04-21T04:34:15.615Z,30.33
2019-04-21T04:39:43.402Z,29.93
2019-04-21T04:47:18.500Z,33.90
2019-04-21T04:49:50.010Z,39.20
2019-04-21T04:57:42.011Z,37.67
2019-04-21T05:02:27.893Z,33.13
2019-04-21T05:07:21.306Z,28.60
2019-04-21T05:09:52.377Z,32.17
2019-04-21T05:12:19.414Z,30.00
2019-04-21T05:14:51.767Z,30.20
2019-04-21T05:17:28.689Z,30.70
2019-04-21T05:22:22.209Z,30.30
2019-04-21T05:24:44.065Z,27.67
2019-04-21T05:27:34.936Z,33.93
2019-04-21T05:30:16.882Z,27.27
2019-04-21T05:33:20.792Z,35.53
2019-04-21T05:36:12.971Z,28.97
2019-04-21T05:39:08.931Z,29.37
2019-04-21T05:41:31.373Z,28.73
2019-04-21T05:44:09.868Z,27.23
2019-04-21T05:46:47.856Z,26.23
2019-04-21T05:49:21.706Z,25.53
2019-04-21T05:51:55.765Z,28.27
2019-04-21T05:54:39.685Z,26.67
2019-04-21T05:57:02.389Z,30.60
2019-04-21T05:59:33.859Z,27.47
2019-04-21T06:02:13.966Z,26.07
2019-04-21T06:05:02.072Z,28.60
2019-04-21T06:07:20.866Z,24.73
2019-04-21T06:09:43.933Z,25.40
2019-04-21T06:12:13.642Z,25.43
2019-04-21T06:14:48.440Z,27.50
2019-04-21T06:17:18.818Z,29.37
2019-04-21T06:19:50.296Z,30.27
2019-04-21T06:22:14.898Z,28.90
2019-04-21T06:25:15.770Z,30.20
2019-04-21T06:27:27.518Z,22.17
2019-04-21T06:29:54.493Z,27.67
2019-04-21T06:32:38.584Z,27.60
2019-04-21T06:35:13.440Z,26.17
2019-04-21T06:40:30.557Z,27.73
2019-04-21T06:42:51.707Z,25.53
2019-04-21T06:45:25.828Z,29.27
2019-04-21T06:50:15.854Z,25.53
2019-04-21T06:55:20.392Z,28.93
2019-04-21T06:57:46.285Z,27.80
2019-04-21T07:00:21.109Z,27.63
2019-04-21T07:03:16.017Z,28.53
2019-04-21T07:05:26.476Z,29.80
2019-04-21T07:08:07.606Z,28.50
2019-04-21T07:10:30.484Z,26.90
2019-04-21T07:12:51.055Z,32.40
2019-04-21T07:15:32.548Z,35.70
2019-04-21T07:18:04.414Z,31.63
2019-04-21T07:20:30.963Z,31.67
2019-04-21T07:23:01.749Z,26.93
2019-04-21T07:25:39.030Z,27.57
2019-04-21T07:28:07.419Z,24.37
2019-04-21T07:30:39.193Z,27.33
2019-04-21T07:35:41.087Z,26.67
2019-04-21T07:38:11.246Z,25.97
2019-04-21T07:40:33.739Z,28.13
2019-04-21T07:43:05.597Z,23.97
2019-04-21T07:45:36.447Z,26.03
2019-04-21T07:48:20.289Z,26.00
2019-04-21T07:51:22.904Z,27.40
2019-04-21T07:53:55.710Z,27.80
2019-04-21T07:56:06.529Z,31.43
2019-04-21T07:58:56.354Z,36.63
2019-04-21T08:01:28.947Z,27.90
2019-04-21T08:03:58.139Z,24.93
2019-04-21T08:06:27.912Z,25.77
2019-04-21T08:08:53.073Z,28.87
2019-04-21T08:11:21.885Z,27.37
2019-04-21T08:13:57.896Z,30.10
2019-04-21T08:16:30.539Z,23.27
2019-04-21T08:18:59.776Z,32.87
2019-04-21T08:21:36.874Z,29.33
2019-04-21T08:24:01.164Z,28.50
2019-04-21T08:26:38.304Z,30.33
2019-04-21T08:29:13.416Z,32.17
2019-04-21T08:31:38.300Z,25.17
2019-04-21T08:34:08.438Z,27.60
2019-04-21T08:36:38.412Z,29.07
2019-04-21T08:39:06.496Z,24.13
2019-04-21T08:41:40.869Z,29.80
2019-04-21T08:44:09.318Z,28.57
2019-04-21T08:46:48.752Z,29.07
2019-04-21T08:49:15.719Z,29.30
2019-04-21T08:51:50.436Z,32.80
2019-04-21T08:54:15.083Z,30.57
2019-04-21T08:57:09.089Z,36.03
2019-04-21T09:00:06.905Z,33.13
2019-04-21T09:02:40.395Z,29.67
2019-04-21T09:05:11.128Z,32.37
2019-04-21T09:07:45.499Z,32.63
2019-04-21T09:10:14.389Z,31.03
2019-04-21T09:12:44.856Z,32.10
2019-04-21T09:15:14.098Z,32.03
2019-04-21T09:17:36.780Z,35.77
2019-04-21T09:22:48.089Z,36.87
2019-04-21T09:25:26.579Z,30.83
2019-04-21T09:27:51.738Z,34.60
2019-04-21T09:30:06.505Z,36.60
2019-04-21T09:32:36.665Z,31.43
2019-04-21T09:35:10.682Z,37.93
2019-04-21T09:37:45.782Z,30.73
2019-04-21T09:40:08.992Z,29.77
2019-04-21T09:42:48.972Z,31.10
2019-04-21T09:45:12.168Z,30.33
2019-04-21T09:47:49.242Z,36.03
2019-04-21T09:50:13.465Z,35.47
2019-04-21T09:52:52.221Z,30.07
2019-04-21T09:55:19.617Z,30.77
2019-04-21T09:57:51.967Z,31.50
2019-04-21T10:00:22.732Z,28.50
2019-04-21T10:02:56.819Z,30.33
2019-04-21T10:05:19.923Z,30.97
2019-04-21T10:07:50.673Z,29.80
2019-04-21T10:10:20.254Z,31.50
2019-04-21T10:12:50.010Z,32.10
2019-04-21T10:15:21.959Z,35.63
2019-04-21T10:17:54.079Z,30.43
2019-04-21T10:20:24.505Z,27.73
2019-04-21T10:22:55.281Z,31.83
2019-04-21T10:25:25.141Z,30.77
2019-04-21T10:27:54.922Z,28.45
2019-04-21T10:30:25.061Z,27.87
2019-04-21T10:32:54.390Z,25.75
2019-04-21T10:35:25.070Z,26.62
2019-04-21T10:38:08.969Z,26.70
2019-04-21T10:40:25.584Z,30.00
2019-04-21T10:42:56.368Z,28.15
2019-04-21T10:45:26.170Z,24.65
2019-04-21T10:47:56.759Z,25.65
2019-04-21T10:50:26.784Z,26.15
2019-04-21T10:53:09.447Z,27.90
2019-04-21T10:55:55.645Z,21.25
2019-04-21T10:58:12.368Z,24.37
2019-04-21T11:00:42.297Z,26.02
2019-04-21T11:03:46.721Z,26.85
2019-04-21T11:06:18.896Z,25.23
2019-04-21T11:08:52.373Z,24.77
2019-04-21T11:11:19.874Z,26.62
2019-04-21T11:13:50.536Z,31.90
2019-04-21T11:16:21.332Z,24.65
2019-04-21T11:18:51.645Z,24.63
2019-04-21T11:21:21.101Z,24.00
2019-04-21T11:23:50.430Z,21.17
2019-04-21T11:26:20.550Z,21.27
2019-04-21T11:28:50.554Z,24.92
2019-04-21T11:31:20.895Z,26.50
2019-04-21T11:33:51.185Z,27.13
2019-04-21T11:36:21.620Z,33.80
2019-04-21T11:39:25.671Z,26.15
2019-04-21T11:41:47.744Z,25.12
2019-04-21T11:44:18.289Z,27.95
2019-04-21T11:46:48.849Z,25.30
2019-04-21T11:49:19.975Z,24.95
2019-04-21T11:51:49.393Z,25.72
2019-04-21T11:54:19.170Z,27.37
2019-04-21T11:56:48.580Z,27.90
2019-04-21T11:59:18.044Z,30.12
2019-04-21T12:01:47.597Z,35.70
2019-04-21T12:04:17.957Z,30.37
2019-04-21T12:06:49.144Z,26.65
2019-04-21T12:09:18.958Z,27.67
2019-04-21T12:11:49.414Z,26.42
2019-04-21T12:14:19.888Z,26.73
2019-04-21T12:16:49.323Z,28.05
2019-04-21T12:19:20.775Z,30.32
2019-04-21T12:22:01.981Z,25.72
2019-04-21T12:24:21.740Z,27.80
2019-04-21T12:26:51.794Z,27.42
2019-04-21T12:29:21.218Z,26.57
2019-04-21T12:32:07.723Z,24.37
2019-04-21T12:34:37.385Z,22.82
2019-04-21T12:37:06.818Z,21.52
2019-04-21T12:39:36.887Z,26.15
2019-04-21T12:42:06.783Z,25.75
2019-04-21T12:44:37.172Z,25.32
2019-04-21T12:47:07.964Z,28.80
2019-04-21T12:49:38.059Z,29.27
2019-04-21T12:52:09.379Z,34.80
2019-04-21T12:54:39.672Z,26.25
2019-04-21T12:57:09.668Z,28.85
2019-04-21T12:59:39.580Z,30.77
2019-04-21T13:02:09.595Z,28.73
2019-04-21T13:04:40.031Z,29.32
2019-04-21T13:07:09.851Z,28.85
2019-04-21T13:09:40.165Z,32.75
2019-04-21T13:12:11.091Z,27.65
2019-04-21T13:14:40.457Z,31.10
2019-04-21T13:17:09.931Z,30.62
2019-04-21T13:19:39.462Z,29.70
2019-04-21T13:22:09.897Z,26.52
2019-04-21T13:24:39.935Z,27.62
2019-04-21T13:27:11.349Z,29.57
2019-04-21T13:29:41.866Z,26.85
2019-04-21T13:32:12.607Z,32.25
2019-04-21T13:34:42.158Z,31.57
2019-04-21T13:37:11.919Z,34.73
2019-04-21T13:40:26.207Z,31.45
2019-04-21T13:42:43.889Z,32.13
2019-04-21T13:45:08.269Z,30.77
2019-04-21T13:47:38.729Z,36.55
2019-04-21T13:50:08.988Z,35.20
2019-04-21T13:52:38.537Z,29.27
2019-04-21T13:55:09.485Z,33.95
2019-04-21T13:57:40.811Z,29.52
2019-04-21T14:00:11.071Z,23.27
2019-04-21T14:02:40.806Z,28.15
2019-04-21T14:05:13.463Z,26.57
2019-04-21T14:07:42.252Z,24.47
2019-04-21T14:10:14.033Z,24.17
2019-04-21T14:12:44.411Z,19.57
2019-04-21T14:15:14.708Z,20.70
2019-04-21T14:17:44.658Z,19.55
2019-04-21T14:20:15.318Z,20.08
2019-04-21T14:22:44.796Z,23.05
2019-04-21T14:25:15.301Z,20.57
2019-04-21T14:27:48.232Z,24.12
2019-04-21T14:30:16.625Z,21.57
2019-04-21T14:32:47.378Z,20.30
2019-04-21T14:35:18.825Z,30.90
2019-04-21T14:37:48.792Z,20.82
2019-04-21T14:40:23.661Z,20.37
2019-04-21T14:42:50.178Z,19.02
2019-04-21T14:45:45.126Z,24.37
2019-04-21T14:48:32.822Z,25.63
2019-04-21T14:51:31.474Z,23.15
2019-04-21T14:54:08.033Z,23.05
2019-04-21T14:56:37.568Z,22.70
2019-04-21T14:59:07.288Z,19.42
2019-04-21T15:01:37.734Z,18.67
2019-04-21T15:04:08.040Z,20.30
2019-04-21T15:06:39.189Z,22.50
2019-04-21T15:09:11.105Z,23.47
2019-04-21T15:11:40.554Z,18.90
2019-04-21T15:14:09.918Z,21.42
2019-04-21T15:16:40.801Z,19.20
2019-04-21T15:19:10.841Z,17.95
2019-04-21T15:21:40.495Z,19.77
2019-04-21T15:24:09.987Z,20.40
2019-04-21T15:26:40.139Z,19.32
2019-04-21T15:29:10.771Z,21.67
2019-04-21T15:31:43.147Z,24.07
2019-04-21T15:34:13.109Z,22.83
2019-04-21T15:36:43.964Z,23.63
2019-04-21T15:39:13.948Z,25.40
2019-04-21T15:41:44.910Z,22.33
2019-04-21T15:44:14.751Z,20.53
2019-04-21T15:46:44.026Z,20.87
2019-04-21T15:49:13.403Z,16.23
2019-04-21T15:51:43.991Z,15.30
2019-04-21T15:54:14.420Z,22.00
2019-04-21T15:56:56.581Z,17.03
2019-04-21T16:00:04.672Z,14.90
2019-04-21T16:02:50.947Z,13.53
2019-04-21T16:05:20.330Z,16.87
2019-04-21T16:07:49.987Z,12.70
2019-04-21T16:10:30.872Z,14.00
2019-04-21T16:12:52.050Z,14.20
2019-04-21T16:15:22.773Z,20.00
2019-04-21T16:17:53.191Z,15.77
2019-04-21T16:20:24.041Z,14.83
2019-04-21T16:22:54.810Z,18.37
2019-04-21T16:25:24.413Z,13.63
2019-04-21T16:27:55.141Z,18.47
2019-04-21T16:30:25.894Z,15.30
2019-04-21T16:32:56.401Z,16.13
2019-04-21T16:35:26.703Z,16.80
2019-04-21T16:37:58.748Z,44.77
2019-04-21T16:40:27.608Z,42.87
2019-04-21T16:42:58.434Z,44.57
2019-04-21T16:45:28.704Z,41.27
2019-04-21T16:47:59.103Z,44.30
2019-04-21T16:50:29.797Z,42.10
2019-04-21T16:53:03.930Z,42.63
2019-04-21T16:55:41.479Z,42.93
2019-04-21T16:58:29.568Z,47.17
2019-04-21T17:01:12.720Z,44.87
2019-04-21T17:03:38.002Z,45.50
2019-04-21T17:06:07.348Z,48.07
2019-04-21T17:08:36.983Z,41.97
2019-04-21T17:11:14.016Z,44.70
2019-04-21T17:13:38.286Z,44.40
2019-04-21T17:16:38.906Z,44.50
2019-04-21T17:18:51.456Z,45.47
2019-04-21T17:21:12.464Z,47.23
2019-04-21T17:23:41.733Z,46.03
2019-04-21T17:26:11.092Z,46.07
2019-04-21T17:28:40.709Z,46.47
2019-04-21T17:31:10.860Z,48.63
2019-04-21T17:33:41.387Z,48.03
2019-04-21T17:36:11.288Z,45.83
2019-04-21T17:38:41.890Z,44.23
2019-04-21T17:41:21.827Z,44.90
2019-04-21T17:43:43.560Z,43.73
2019-04-21T17:46:20.402Z,45.47
2019-04-21T17:48:45.151Z,42.13
2019-04-21T17:51:39.482Z,41.93
2019-04-21T17:54:21.280Z,50.30
2019-04-21T17:57:04.559Z,46.47
2019-04-21T17:59:45.147Z,40.63
2019-04-21T18:02:03.929Z,43.77
2019-04-21T18:04:39.534Z,44.17
2019-04-21T18:07:29.047Z,47.40
2019-04-21T18:12:31.851Z,46.97
2019-04-21T18:14:59.221Z,48.00
2019-04-21T18:17:18.325Z,46.27
2019-04-21T18:19:51.307Z,51.67
2019-04-21T18:22:41.714Z,46.97
2019-04-21T18:25:28.368Z,47.10
2019-04-21T18:27:44.808Z,52.73
2019-04-21T18:30:42.340Z,52.37
2019-04-21T18:33:21.305Z,45.57
2019-04-21T18:36:22.269Z,50.80
2019-04-21T18:39:16.404Z,52.57
2019-04-21T18:42:04.937Z,53.07
2019-04-21T18:45:05.212Z,48.23
2019-04-21T18:47:37.216Z,45.67
2019-04-21T18:49:54.645Z,54.53
2019-04-21T18:52:45.558Z,44.80
2019-04-21T18:55:12.917Z,47.60
2019-04-21T18:57:39.516Z,48.27
2019-04-21T19:00:08.627Z,48.90
2019-04-21T19:02:42.690Z,47.47
2019-04-21T19:05:11.471Z,49.70
2019-04-21T19:07:55.819Z,49.27
2019-04-21T19:10:26.788Z,47.83
2019-04-21T19:15:32.112Z,50.27
2019-04-21T19:18:36.636Z,45.77
2019-04-21T19:20:32.824Z,48.00
2019-04-21T19:22:58.756Z,48.17
2019-04-21T19:25:31.555Z,46.67
2019-04-21T19:28:03.417Z,46.57
2019-04-21T19:30:39.887Z,50.37
2019-04-21T19:33:10.203Z,43.80
2019-04-21T19:35:23.606Z,43.83
2019-04-21T19:37:59.414Z,47.83
2019-04-21T19:40:44.857Z,46.43
2019-04-21T19:43:03.600Z,45.20
2019-04-21T19:45:38.147Z,46.93
2019-04-21T19:48:15.002Z,47.20
2019-04-21T19:50:51.545Z,43.57
2019-04-21T19:53:08.864Z,42.87
2019-04-21T19:55:32.012Z,44.53
2019-04-21T19:58:03.074Z,47.50
2019-04-21T20:00:32.599Z,43.67
2019-04-21T20:03:03.067Z,43.17
2019-04-21T20:05:43.073Z,40.37
2019-04-21T20:08:17.709Z,42.07
2019-04-21T20:10:58.009Z,45.67
2019-04-21T20:13:35.278Z,45.23
2019-04-21T20:15:57.118Z,47.07
2019-04-21T20:18:21.231Z,43.90
2019-04-21T20:20:39.639Z,43.13
2019-04-21T20:23:16.915Z,42.87
2019-04-21T20:25:47.434Z,47.77
2019-04-21T20:28:22.173Z,46.67
2019-04-21T20:31:01.569Z,49.53
2019-04-21T20:33:49.063Z,53.63
2019-04-21T20:36:03.349Z,50.93
2019-04-21T20:38:29.876Z,45.17
2019-04-21T20:40:53.581Z,44.67
2019-04-21T20:43:38.079Z,46.73
2019-04-21T20:46:08.034Z,49.37
2019-04-21T20:48:31.911Z,42.10
2019-04-21T20:51:23.090Z,46.30
2019-04-21T20:53:36.193Z,45.47
2019-04-21T20:56:05.032Z,46.97
2019-04-21T20:58:42.608Z,46.33
2019-04-21T21:01:29.477Z,46.67
2019-04-21T21:03:46.460Z,44.87
2019-04-21T21:06:09.939Z,41.87
2019-04-21T21:08:44.564Z,54.70
2019-04-21T21:11:21.515Z,43.97
2019-04-21T21:13:49.139Z,46.97
2019-04-21T21:16:29.167Z,46.17
2019-04-21T21:19:04.313Z,45.07
2019-04-21T21:21:20.654Z,46.73
2019-04-21T21:23:56.206Z,44.33
2019-04-21T21:26:25.739Z,47.93
2019-04-21T21:28:54.153Z,52.03
2019-04-21T21:31:33.861Z,48.10
2019-04-21T21:34:08.260Z,48.67
2019-04-21T21:36:26.510Z,52.23
2019-04-21T21:39:01.261Z,48.27
2019-04-21T21:41:22.108Z,53.77
2019-04-21T21:43:47.757Z,49.47
2019-04-21T21:46:31.185Z,50.00
2019-04-21T21:48:59.123Z,45.00
2019-04-21T21:51:29.279Z,53.03
2019-04-21T21:53:48.571Z,47.93
2019-04-21T21:56:18.574Z,46.40
2019-04-21T21:58:49.664Z,59.90
2019-04-21T22:01:21.818Z,46.43
2019-04-21T22:04:01.704Z,47.73
2019-04-21T22:06:23.985Z,46.43
2019-04-21T22:08:52.725Z,49.70
2019-04-21T22:11:22.200Z,54.77
2019-04-21T22:13:57.682Z,51.90
2019-04-21T22:16:28.629Z,50.63
2019-04-21T22:19:22.926Z,48.50
2019-04-21T22:21:41.633Z,46.83
2019-04-21T22:24:03.553Z,49.13
2019-04-21T22:26:27.259Z,47.83
2019-04-21T22:28:58.049Z,44.87
2019-04-21T22:31:31.578Z,43.83
2019-04-21T22:34:03.826Z,49.03
2019-04-21T22:36:43.772Z,49.57
2019-04-21T22:39:20.789Z,50.37
2019-04-21T22:41:40.510Z,50.63
2019-04-21T22:44:02.822Z,53.47
2019-04-21T22:46:32.702Z,53.47
2019-04-21T22:49:08.370Z,49.80
2019-04-21T22:51:38.431Z,50.33
2019-04-21T22:54:04.330Z,50.30
2019-04-21T22:56:35.559Z,52.50
2019-04-21T22:59:09.668Z,53.90
2019-04-21T23:01:41.464Z,50.37
2019-04-21T23:04:08.548Z,45.20
2019-04-21T23:06:39.203Z,50.60
2019-04-21T23:09:10.880Z,48.67
2019-04-21T23:11:45.408Z,55.67
2019-04-21T23:14:13.167Z,53.33
2019-04-21T23:16:45.668Z,51.73
2019-04-21T23:19:31.344Z,45.43
2019-04-21T23:22:03.420Z,47.43
2019-04-21T23:24:42.068Z,52.57
2019-04-21T23:27:00.001Z,49.40
2019-04-21T23:29:47.878Z,50.47
2019-04-21T23:32:03.128Z,49.70
2019-04-21T23:34:26.608Z,50.47
2019-04-21T23:37:00.210Z,51.63
2019-04-21T23:39:28.427Z,45.57
2019-04-21T23:41:55.383Z,50.07
2019-04-21T23:44:25.984Z,52.43
2019-04-21T23:47:00.572Z,53.67
2019-04-21T23:49:37.975Z,51.53
2019-04-21T23:52:02.981Z,56.80
2019-04-21T23:54:29.297Z,47.73
2019-04-21T23:57:02.895Z,47.37
2019-04-21T23:59:32.488Z,53.17
